sensor_id;sensor_type;location;lat;lon;timestamp;P1;P2;P0
24012;PMS7003;12220;50.194;18.948;2023-02-26T00:01:32;13;10;8
24012;PMS7003;12220;50.194;18.948;2023-02-26T00:03:40;8;8;7
24012;PMS7003;12220;50.194;18.948;2023-02-26T00:05:41;12;10;7
24012;PMS7003;12220;50.194;18.948;2023-02-26T00:07:43;9;8;5
24012;PMS7003;12220;50.194;18.948;2023-02-26T00:09:44;10;10;7
24012;PMS7003;12220;50.194;18.948;2023-02-26T00:11:55;11;11;8
24012;PMS7003;12220;50.194;18.948;2023-02-26T00:13:57;11;10;9
24012;PMS7003;12220;50.194;18.948;2023-02-26T00:15:59;15;11;8
24012;PMS7003;12220;50.194;18.948;2023-02-26T00:18:05;13;9;7
24012;PMS7003;12220;50.194;18.948;2023-02-26T00:20:12;12;7;6
24012;PMS7003;12220;50.194;18.948;2023-02-26T00:22:16;15;9;6
24012;PMS7003;12220;50.194;18.948;2023-02-26T00:24:18;12;10;9
24012;PMS7003;12220;50.194;18.948;2023-02-26T00:26:20;14;9;6
24012;PMS7003;12220;50.194;18.948;2023-02-26T00:28:25;16;12;9
24012;PMS7003;12220;50.194;18.948;2023-02-26T00:30:27;13;12;9
24012;PMS7003;12220;50.194;18.948;2023-02-26T00:32:29;13;7;5
24012;PMS7003;12220;50.194;18.948;2023-02-26T00:34:34;8;8;6
24012;PMS7003;12220;50.194;18.948;2023-02-26T00:36:45;8;8;6
24012;PMS7003;12220;50.194;18.948;2023-02-26T00:41:23;9;9;7
24012;PMS7003;12220;50.194;18.948;2023-02-26T00:43:25;10;10;7
24012;PMS7003;12220;50.194;18.948;2023-02-26T00:45:27;12;11;9
24012;PMS7003;12220;50.194;18.948;2023-02-26T00:52:04;11;10;7
24012;PMS7003;12220;50.194;18.948;2023-02-26T00:54:22;11;11;8
24012;PMS7003;12220;50.194;18.948;2023-02-26T00:56:26;11;9;7
24012;PMS7003;12220;50.194;18.948;2023-02-26T00:58:27;13;12;8
24012;PMS7003;12220;50.194;18.948;2023-02-26T01:00:29;5;5;4
24012;PMS7003;12220;50.194;18.948;2023-02-26T01:02:36;7;5;3
24012;PMS7003;12220;50.194;18.948;2023-02-26T01:04:39;12;10;8
24012;PMS7003;12220;50.194;18.948;2023-02-26T01:19:02;8;8;7
24012;PMS7003;12220;50.194;18.948;2023-02-26T01:23:42;8;8;5
24012;PMS7003;12220;50.194;18.948;2023-02-26T01:25:49;13;10;6
24012;PMS7003;12220;50.194;18.948;2023-02-26T01:27:54;7;7;5
24012;PMS7003;12220;50.194;18.948;2023-02-26T01:29:57;8;8;6
24012;PMS7003;12220;50.194;18.948;2023-02-26T01:32:02;9;8;5
24012;PMS7003;12220;50.194;18.948;2023-02-26T01:36:26;9;8;6
24012;PMS7003;12220;50.194;18.948;2023-02-26T01:43:16;8;8;6
24012;PMS7003;12220;50.194;18.948;2023-02-26T01:45:34;11;10;5
24012;PMS7003;12220;50.194;18.948;2023-02-26T01:47:45;12;11;7
24012;PMS7003;12220;50.194;18.948;2023-02-26T01:49:51;13;10;7
24012;PMS7003;12220;50.194;18.948;2023-02-26T01:51:54;8;7;5
24012;PMS7003;12220;50.194;18.948;2023-02-26T01:53:58;13;9;6
24012;PMS7003;12220;50.194;18.948;2023-02-26T01:56:00;11;11;7
24012;PMS7003;12220;50.194;18.948;2023-02-26T01:58:06;11;11;8
24012;PMS7003;12220;50.194;18.948;2023-02-26T02:00:08;12;8;6
24012;PMS7003;12220;50.194;18.948;2023-02-26T02:04:33;5;5;4
24012;PMS7003;12220;50.194;18.948;2023-02-26T02:06:34;13;13;8
24012;PMS7003;12220;50.194;18.948;2023-02-26T02:08:37;10;9;7
24012;PMS7003;12220;50.194;18.948;2023-02-26T02:10:43;8;8;5
24012;PMS7003;12220;50.194;18.948;2023-02-26T02:12:50;10;10;8
24012;PMS7003;12220;50.194;18.948;2023-02-26T02:17:18;4;4;3
24012;PMS7003;12220;50.194;18.948;2023-02-26T02:33:14;9;9;6
24012;PMS7003;12220;50.194;18.948;2023-02-26T02:35:41;7;7;6
24012;PMS7003;12220;50.194;18.948;2023-02-26T02:37:57;13;12;8
24012;PMS7003;12220;50.194;18.948;2023-02-26T02:40:17;9;9;7
24012;PMS7003;12220;50.194;18.948;2023-02-26T02:44:37;10;10;8
24012;PMS7003;12220;50.194;18.948;2023-02-26T02:46:45;8;8;7
24012;PMS7003;12220;50.194;18.948;2023-02-26T02:48:52;18;13;9
24012;PMS7003;12220;50.194;18.948;2023-02-26T02:51:03;10;10;7
24012;PMS7003;12220;50.194;18.948;2023-02-26T02:55:43;15;7;6
24012;PMS7003;12220;50.194;18.948;2023-02-26T02:57:38;13;11;7
24012;PMS7003;12220;50.194;18.948;2023-02-26T02:59:48;9;9;6
24012;PMS7003;12220;50.194;18.948;2023-02-26T03:04:13;12;11;8
24012;PMS7003;12220;50.194;18.948;2023-02-26T03:06:21;11;11;9
24012;PMS7003;12220;50.194;18.948;2023-02-26T03:08:26;11;10;7
24012;PMS7003;12220;50.194;18.948;2023-02-26T03:10:31;8;8;7
24012;PMS7003;12220;50.194;18.948;2023-02-26T03:12:34;11;11;9
24012;PMS7003;12220;50.194;18.948;2023-02-26T03:14:36;8;8;6
24012;PMS7003;12220;50.194;18.948;2023-02-26T03:19:14;10;10;7
24012;PMS7003;12220;50.194;18.948;2023-02-26T03:23:24;11;10;8
24012;PMS7003;12220;50.194;18.948;2023-02-26T03:25:49;10;10;8
24012;PMS7003;12220;50.194;18.948;2023-02-26T03:32:40;13;12;9
24012;PMS7003;12220;50.194;18.948;2023-02-26T03:37:17;11;11;9
24012;PMS7003;12220;50.194;18.948;2023-02-26T03:39:40;5;5;5
24012;PMS7003;12220;50.194;18.948;2023-02-26T03:41:48;9;8;7
24012;PMS7003;12220;50.194;18.948;2023-02-26T03:44:00;7;7;6
24012;PMS7003;12220;50.194;18.948;2023-02-26T03:46:10;9;8;5
24012;PMS7003;12220;50.194;18.948;2023-02-26T03:48:18;7;7;5
24012;PMS7003;12220;50.194;18.948;2023-02-26T03:50:26;10;10;7
24012;PMS7003;12220;50.194;18.948;2023-02-26T03:52:45;7;7;5
24012;PMS7003;12220;50.194;18.948;2023-02-26T03:54:59;7;7;7
24012;PMS7003;12220;50.194;18.948;2023-02-26T03:57:06;7;6;5
24012;PMS7003;12220;50.194;18.948;2023-02-26T03:59:08;5;5;3
24012;PMS7003;12220;50.194;18.948;2023-02-26T04:01:15;5;5;4
24012;PMS7003;12220;50.194;18.948;2023-02-26T04:03:24;6;4;2
24012;PMS7003;12220;50.194;18.948;2023-02-26T04:05:33;4;4;4
24012;PMS7003;12220;50.194;18.948;2023-02-26T04:07:40;6;5;4
24012;PMS7003;12220;50.194;18.948;2023-02-26T04:09:43;7;6;5
24012;PMS7003;12220;50.194;18.948;2023-02-26T04:11:46;6;6;4
24012;PMS7003;12220;50.194;18.948;2023-02-26T04:13:51;5;2;2
24012;PMS7003;12220;50.194;18.948;2023-02-26T04:15:52;5;5;4
24012;PMS7003;12220;50.194;18.948;2023-02-26T04:17:56;6;6;4
24012;PMS7003;12220;50.194;18.948;2023-02-26T04:19:57;6;4;3
24012;PMS7003;12220;50.194;18.948;2023-02-26T04:21:59;7;7;5
24012;PMS7003;12220;50.194;18.948;2023-02-26T04:24:00;6;4;3
24012;PMS7003;12220;50.194;18.948;2023-02-26T04:26:11;4;4;4
24012;PMS7003;12220;50.194;18.948;2023-02-26T04:28:13;2;2;2
24012;PMS7003;12220;50.194;18.948;2023-02-26T04:30:14;4;3;2
24012;PMS7003;12220;50.194;18.948;2023-02-26T04:32:16;5;5;4
24012;PMS7003;12220;50.194;18.948;2023-02-26T04:34:26;3;3;2
24012;PMS7003;12220;50.194;18.948;2023-02-26T04:36:27;6;6;4
24012;PMS7003;12220;50.194;18.948;2023-02-26T04:38:29;5;5;4
24012;PMS7003;12220;50.194;18.948;2023-02-26T04:40:31;7;3;2
24012;PMS7003;12220;50.194;18.948;2023-02-26T04:42:41;6;6;5
24012;PMS7003;12220;50.194;18.948;2023-02-26T04:44:43;6;6;5
24012;PMS7003;12220;50.194;18.948;2023-02-26T04:46:44;5;5;3
24012;PMS7003;12220;50.194;18.948;2023-02-26T04:48:45;6;6;5
24012;PMS7003;12220;50.194;18.948;2023-02-26T04:50:56;6;5;4
24012;PMS7003;12220;50.194;18.948;2023-02-26T04:52:57;9;6;4
24012;PMS7003;12220;50.194;18.948;2023-02-26T04:54:59;6;5;5
24012;PMS7003;12220;50.194;18.948;2023-02-26T04:57:00;6;6;4
24012;PMS7003;12220;50.194;18.948;2023-02-26T04:59:11;6;5;4
24012;PMS7003;12220;50.194;18.948;2023-02-26T05:01:13;7;7;4
24012;PMS7003;12220;50.194;18.948;2023-02-26T05:03:17;3;3;3
24012;PMS7003;12220;50.194;18.948;2023-02-26T05:05:19;4;4;4
24012;PMS7003;12220;50.194;18.948;2023-02-26T05:07:26;3;3;2
24012;PMS7003;12220;50.194;18.948;2023-02-26T05:09:28;7;6;5
24012;PMS7003;12220;50.194;18.948;2023-02-26T05:11:29;5;5;3
24012;PMS7003;12220;50.194;18.948;2023-02-26T05:13:31;4;4;3
24012;PMS7003;12220;50.194;18.948;2023-02-26T05:15:41;5;5;4
24012;PMS7003;12220;50.194;18.948;2023-02-26T05:17:43;7;6;4
24012;PMS7003;12220;50.194;18.948;2023-02-26T05:19:44;3;3;3
24012;PMS7003;12220;50.194;18.948;2023-02-26T05:21:46;6;4;4
24012;PMS7003;12220;50.194;18.948;2023-02-26T05:23:56;6;5;5
24012;PMS7003;12220;50.194;18.948;2023-02-26T05:25:58;4;4;3
24012;PMS7003;12220;50.194;18.948;2023-02-26T05:28:00;5;4;2
24012;PMS7003;12220;50.194;18.948;2023-02-26T05:30:01;7;5;4
24012;PMS7003;12220;50.194;18.948;2023-02-26T05:32:11;3;3;3
24012;PMS7003;12220;50.194;18.948;2023-02-26T05:34:13;5;4;3
24012;PMS7003;12220;50.194;18.948;2023-02-26T05:36:15;4;3;2
24012;PMS7003;12220;50.194;18.948;2023-02-26T05:38:16;5;5;4
24012;PMS7003;12220;50.194;18.948;2023-02-26T05:40:27;4;4;3
24012;PMS7003;12220;50.194;18.948;2023-02-26T05:42:28;5;5;3
24012;PMS7003;12220;50.194;18.948;2023-02-26T05:44:30;6;6;5
24012;PMS7003;12220;50.194;18.948;2023-02-26T05:46:31;6;4;3
24012;PMS7003;12220;50.194;18.948;2023-02-26T05:48:42;7;4;3
24012;PMS7003;12220;50.194;18.948;2023-02-26T05:50:47;6;4;3
24012;PMS7003;12220;50.194;18.948;2023-02-26T05:52:49;5;3;2
24012;PMS7003;12220;50.194;18.948;2023-02-26T05:54:51;4;2;2
24012;PMS7003;12220;50.194;18.948;2023-02-26T05:56:57;5;5;3
24012;PMS7003;12220;50.194;18.948;2023-02-26T05:58:58;3;3;3
24012;PMS7003;12220;50.194;18.948;2023-02-26T06:01:03;2;2;2
24012;PMS7003;12220;50.194;18.948;2023-02-26T06:03:05;2;2;1
24012;PMS7003;12220;50.194;18.948;2023-02-26T06:05:12;3;2;1
24012;PMS7003;12220;50.194;18.948;2023-02-26T06:07:13;7;3;2
24012;PMS7003;12220;50.194;18.948;2023-02-26T06:09:15;5;3;2
24012;PMS7003;12220;50.194;18.948;2023-02-26T06:11:16;2;2;1
24012;PMS7003;12220;50.194;18.948;2023-02-26T06:13:27;7;7;3
24012;PMS7003;12220;50.194;18.948;2023-02-26T06:15:28;6;6;3
24012;PMS7003;12220;50.194;18.948;2023-02-26T06:17:30;6;6;5
24012;PMS7003;12220;50.194;18.948;2023-02-26T06:19:32;6;5;4
24012;PMS7003;12220;50.194;18.948;2023-02-26T06:21:42;8;5;3
24012;PMS7003;12220;50.194;18.948;2023-02-26T06:23:44;7;5;4
24012;PMS7003;12220;50.194;18.948;2023-02-26T06:25:45;4;4;3
24012;PMS7003;12220;50.194;18.948;2023-02-26T06:27:47;7;7;5
24012;PMS7003;12220;50.194;18.948;2023-02-26T06:29:57;4;4;3
24012;PMS7003;12220;50.194;18.948;2023-02-26T06:31:59;6;6;5
24012;PMS7003;12220;50.194;18.948;2023-02-26T06:34:00;6;6;5
24012;PMS7003;12220;50.194;18.948;2023-02-26T06:36:02;7;5;4
24012;PMS7003;12220;50.194;18.948;2023-02-26T06:38:12;5;5;4
24012;PMS7003;12220;50.194;18.948;2023-02-26T06:40:14;6;6;5
24012;PMS7003;12220;50.194;18.948;2023-02-26T06:42:18;7;5;3
24012;PMS7003;12220;50.194;18.948;2023-02-26T06:44:20;4;4;2
24012;PMS7003;12220;50.194;18.948;2023-02-26T06:46:27;7;6;5
24012;PMS7003;12220;50.194;18.948;2023-02-26T06:48:30;4;3;2
24012;PMS7003;12220;50.194;18.948;2023-02-26T06:50:32;5;5;5
24012;PMS7003;12220;50.194;18.948;2023-02-26T06:52:34;7;7;6
24012;PMS7003;12220;50.194;18.948;2023-02-26T06:54:42;5;4;3
24012;PMS7003;12220;50.194;18.948;2023-02-26T06:56:44;5;4;3
24012;PMS7003;12220;50.194;18.948;2023-02-26T06:58:46;5;4;4
24012;PMS7003;12220;50.194;18.948;2023-02-26T07:00:47;7;6;3
24012;PMS7003;12220;50.194;18.948;2023-02-26T07:02:58;7;6;4
24012;PMS7003;12220;50.194;18.948;2023-02-26T07:05:03;7;4;2
24012;PMS7003;12220;50.194;18.948;2023-02-26T07:07:05;6;5;4
24012;PMS7003;12220;50.194;18.948;2023-02-26T07:09:06;9;7;5
24012;PMS7003;12220;50.194;18.948;2023-02-26T07:11:13;5;4;1
24012;PMS7003;12220;50.194;18.948;2023-02-26T07:13:15;7;7;5
24012;PMS7003;12220;50.194;18.948;2023-02-26T07:15:17;11;8;5
24012;PMS7003;12220;50.194;18.948;2023-02-26T07:17:19;9;9;6
24012;PMS7003;12220;50.194;18.948;2023-02-26T07:19:28;7;6;4
24012;PMS7003;12220;50.194;18.948;2023-02-26T07:21:30;6;6;4
24012;PMS7003;12220;50.194;18.948;2023-02-26T07:23:32;10;9;7
24012;PMS7003;12220;50.194;18.948;2023-02-26T07:25:33;11;11;8
24012;PMS7003;12220;50.194;18.948;2023-02-26T07:27:43;16;11;8
24012;PMS7003;12220;50.194;18.948;2023-02-26T07:29:44;11;10;7
24012;PMS7003;12220;50.194;18.948;2023-02-26T07:31:46;10;10;8
24012;PMS7003;12220;50.194;18.948;2023-02-26T07:33:49;13;13;7
24012;PMS7003;12220;50.194;18.948;2023-02-26T07:35:58;9;9;6
24012;PMS7003;12220;50.194;18.948;2023-02-26T07:37:59;12;12;9
24012;PMS7003;12220;50.194;18.948;2023-02-26T07:40:01;16;13;8
24012;PMS7003;12220;50.194;18.948;2023-02-26T07:42:06;11;11;7
24012;PMS7003;12220;50.194;18.948;2023-02-26T07:44:13;12;12;7
24012;PMS7003;12220;50.194;18.948;2023-02-26T07:46:15;13;11;9
24012;PMS7003;12220;50.194;18.948;2023-02-26T07:48:16;14;14;9
24012;PMS7003;12220;50.194;18.948;2023-02-26T07:50:19;12;11;7
24012;PMS7003;12220;50.194;18.948;2023-02-26T07:52:28;7;6;5
24012;PMS7003;12220;50.194;18.948;2023-02-26T07:54:30;12;9;7
24012;PMS7003;12220;50.194;18.948;2023-02-26T07:56:31;12;8;6
24012;PMS7003;12220;50.194;18.948;2023-02-26T07:58:33;9;9;7
24012;PMS7003;12220;50.194;18.948;2023-02-26T08:00:43;8;8;6
24012;PMS7003;12220;50.194;18.948;2023-02-26T08:02:45;9;8;6
24012;PMS7003;12220;50.194;18.948;2023-02-26T08:04:49;11;9;6
24012;PMS7003;12220;50.194;18.948;2023-02-26T08:06:50;13;12;4
24012;PMS7003;12220;50.194;18.948;2023-02-26T08:08:58;6;6;5
24012;PMS7003;12220;50.194;18.948;2023-02-26T08:11:00;9;9;7
24012;PMS7003;12220;50.194;18.948;2023-02-26T08:13:02;9;9;5
24012;PMS7003;12220;50.194;18.948;2023-02-26T08:15:04;8;8;6
24012;PMS7003;12220;50.194;18.948;2023-02-26T08:17:13;8;8;6
24012;PMS7003;12220;50.194;18.948;2023-02-26T08:19:18;12;10;6
24012;PMS7003;12220;50.194;18.948;2023-02-26T08:21:19;10;10;6
24012;PMS7003;12220;50.194;18.948;2023-02-26T08:23:21;11;10;7
24012;PMS7003;12220;50.194;18.948;2023-02-26T08:25:28;8;7;5
24012;PMS7003;12220;50.194;18.948;2023-02-26T08:27:33;10;10;7
24012;PMS7003;12220;50.194;18.948;2023-02-26T08:29:34;15;12;8
24012;PMS7003;12220;50.194;18.948;2023-02-26T08:31:37;8;8;6
24012;PMS7003;12220;50.194;18.948;2023-02-26T08:33:44;9;9;7
24012;PMS7003;12220;50.194;18.948;2023-02-26T08:35:45;13;13;8
24012;PMS7003;12220;50.194;18.948;2023-02-26T08:37:47;7;7;4
24012;PMS7003;12220;50.194;18.948;2023-02-26T08:39:49;9;8;6
24012;PMS7003;12220;50.194;18.948;2023-02-26T08:41:59;7;7;5
24012;PMS7003;12220;50.194;18.948;2023-02-26T08:44:00;8;7;6
24012;PMS7003;12220;50.194;18.948;2023-02-26T08:46:02;4;4;4
24012;PMS7003;12220;50.194;18.948;2023-02-26T08:48:04;9;6;4
24012;PMS7003;12220;50.194;18.948;2023-02-26T08:50:14;9;6;3
24012;PMS7003;12220;50.194;18.948;2023-02-26T08:52:15;6;6;5
24012;PMS7003;12220;50.194;18.948;2023-02-26T08:54:17;7;6;5
24012;PMS7003;12220;50.194;18.948;2023-02-26T08:56:18;6;5;4
24012;PMS7003;12220;50.194;18.948;2023-02-26T08:58:29;6;6;5
24012;PMS7003;12220;50.194;18.948;2023-02-26T09:00:30;6;6;5
24012;PMS7003;12220;50.194;18.948;2023-02-26T09:02:32;10;9;6
24012;PMS7003;12220;50.194;18.948;2023-02-26T09:04:33;7;7;5
24012;PMS7003;12220;50.194;18.948;2023-02-26T09:06:44;12;10;6
24012;PMS7003;12220;50.194;18.948;2023-02-26T09:08:46;11;11;7
24012;PMS7003;12220;50.194;18.948;2023-02-26T09:10:49;10;9;6
24012;PMS7003;12220;50.194;18.948;2023-02-26T09:12:53;14;9;6
24012;PMS7003;12220;50.194;18.948;2023-02-26T09:14:59;13;11;8
24012;PMS7003;12220;50.194;18.948;2023-02-26T09:17:01;8;8;7
24012;PMS7003;12220;50.194;18.948;2023-02-26T09:19:05;11;11;9
24012;PMS7003;12220;50.194;18.948;2023-02-26T09:21:07;12;9;7
24012;PMS7003;12220;50.194;18.948;2023-02-26T09:23:14;9;9;7
24012;PMS7003;12220;50.194;18.948;2023-02-26T09:25:17;8;8;6
24012;PMS7003;12220;50.194;18.948;2023-02-26T09:27:19;9;9;7
24012;PMS7003;12220;50.194;18.948;2023-02-26T09:29:21;14;10;8
24012;PMS7003;12220;50.194;18.948;2023-02-26T09:31:29;18;14;9
24012;PMS7003;12220;50.194;18.948;2023-02-26T09:33:33;12;12;9
24012;PMS7003;12220;50.194;18.948;2023-02-26T09:35:37;9;9;8
24012;PMS7003;12220;50.194;18.948;2023-02-26T09:37:39;7;7;5
24012;PMS7003;12220;50.194;18.948;2023-02-26T09:39:44;8;7;6
24012;PMS7003;12220;50.194;18.948;2023-02-26T09:56:15;2;2;2
24012;PMS7003;12220;50.194;18.948;2023-02-26T09:58:23;2;2;1
24012;PMS7003;12220;50.194;18.948;2023-02-26T10:03:01;5;5;4
24012;PMS7003;12220;50.194;18.948;2023-02-26T10:07:33;4;2;2
24012;PMS7003;12220;50.194;18.948;2023-02-26T10:12:21;5;5;5
24012;PMS7003;12220;50.194;18.948;2023-02-26T10:16:37;5;5;4
24012;PMS7003;12220;50.194;18.948;2023-02-26T10:25:30;6;6;5
24012;PMS7003;12220;50.194;18.948;2023-02-26T10:27:49;5;4;4
24012;PMS7003;12220;50.194;18.948;2023-02-26T10:30:13;8;6;5
24012;PMS7003;12220;50.194;18.948;2023-02-26T10:32:33;6;5;4
24012;PMS7003;12220;50.194;18.948;2023-02-26T10:34:54;12;12;8
24012;PMS7003;12220;50.194;18.948;2023-02-26T10:37:09;8;8;7
24012;PMS7003;12220;50.194;18.948;2023-02-26T10:41:30;16;12;10
24012;PMS7003;12220;50.194;18.948;2023-02-26T10:43:41;9;8;8
24012;PMS7003;12220;50.194;18.948;2023-02-26T10:45:57;7;7;5
24012;PMS7003;12220;50.194;18.948;2023-02-26T10:48:12;12;11;8
24012;PMS7003;12220;50.194;18.948;2023-02-26T10:50:22;11;11;7
24012;PMS7003;12220;50.194;18.948;2023-02-26T10:52:25;10;6;5
24012;PMS7003;12220;50.194;18.948;2023-02-26T10:56:39;5;5;4
24012;PMS7003;12220;50.194;18.948;2023-02-26T10:58:40;6;5;4
24012;PMS7003;12220;50.194;18.948;2023-02-26T11:00:43;6;6;5
24012;PMS7003;12220;50.194;18.948;2023-02-26T11:02:48;9;6;5
24012;PMS7003;12220;50.194;18.948;2023-02-26T11:04:53;8;7;5
24012;PMS7003;12220;50.194;18.948;2023-02-26T11:06:58;8;6;4
24012;PMS7003;12220;50.194;18.948;2023-02-26T11:09:02;10;9;6
24012;PMS7003;12220;50.194;18.948;2023-02-26T11:11:06;11;9;4
24012;PMS7003;12220;50.194;18.948;2023-02-26T11:13:08;8;8;5
24012;PMS7003;12220;50.194;18.948;2023-02-26T11:15:14;10;10;7
24012;PMS7003;12220;50.194;18.948;2023-02-26T11:17:22;9;9;5
24012;PMS7003;12220;50.194;18.948;2023-02-26T11:19:41;9;9;8
24012;PMS7003;12220;50.194;18.948;2023-02-26T11:21:42;10;9;6
24012;PMS7003;12220;50.194;18.948;2023-02-26T11:23:46;12;11;7
24012;PMS7003;12220;50.194;18.948;2023-02-26T11:30:41;2;2;2
24012;PMS7003;12220;50.194;18.948;2023-02-26T11:32:45;4;4;3
24012;PMS7003;12220;50.194;18.948;2023-02-26T11:34:51;2;2;1
24012;PMS7003;12220;50.194;18.948;2023-02-26T11:36:56;5;4;4
24012;PMS7003;12220;50.194;18.948;2023-02-26T11:39:04;4;2;2
24012;PMS7003;12220;50.194;18.948;2023-02-26T11:41:17;2;2;2
24012;PMS7003;12220;50.194;18.948;2023-02-26T11:43:20;6;5;4
24012;PMS7003;12220;50.194;18.948;2023-02-26T11:45:24;6;6;4
24012;PMS7003;12220;50.194;18.948;2023-02-26T11:47:27;4;4;4
24012;PMS7003;12220;50.194;18.948;2023-02-26T11:49:32;6;5;4
24012;PMS7003;12220;50.194;18.948;2023-02-26T11:51:34;8;5;4
24012;PMS7003;12220;50.194;18.948;2023-02-26T11:53:37;5;4;4
24012;PMS7003;12220;50.194;18.948;2023-02-26T11:55:44;6;5;4
24012;PMS7003;12220;50.194;18.948;2023-02-26T11:57:51;5;5;4
24012;PMS7003;12220;50.194;18.948;2023-02-26T11:59:54;3;3;2
24012;PMS7003;12220;50.194;18.948;2023-02-26T12:02:04;4;2;2
24012;PMS7003;12220;50.194;18.948;2023-02-26T12:04:21;7;7;5
24012;PMS7003;12220;50.194;18.948;2023-02-26T12:23:36;9;8;6
24012;PMS7003;12220;50.194;18.948;2023-02-26T12:28:06;5;5;4
24012;PMS7003;12220;50.194;18.948;2023-02-26T12:37:29;5;5;4
24012;PMS7003;12220;50.194;18.948;2023-02-26T12:46:49;3;3;2
24012;PMS7003;12220;50.194;18.948;2023-02-26T12:55:41;9;7;6
24012;PMS7003;12220;50.194;18.948;2023-02-26T12:57:56;7;6;5
24012;PMS7003;12220;50.194;18.948;2023-02-26T13:07:03;10;9;6
24012;PMS7003;12220;50.194;18.948;2023-02-26T13:14:11;13;10;7
24012;PMS7003;12220;50.194;18.948;2023-02-26T13:16:32;11;8;6
24012;PMS7003;12220;50.194;18.948;2023-02-26T13:18:50;10;8;7
24012;PMS7003;12220;50.194;18.948;2023-02-26T13:21:19;8;8;5
24012;PMS7003;12220;50.194;18.948;2023-02-26T13:23:33;9;7;5
24012;PMS7003;12220;50.194;18.948;2023-02-26T13:25:56;9;9;8
24012;PMS7003;12220;50.194;18.948;2023-02-26T13:28:02;8;8;6
24012;PMS7003;12220;50.194;18.948;2023-02-26T13:32:23;11;11;8
24012;PMS7003;12220;50.194;18.948;2023-02-26T13:36:46;9;9;7
24012;PMS7003;12220;50.194;18.948;2023-02-26T13:43:49;10;10;8
24012;PMS7003;12220;50.194;18.948;2023-02-26T14:04:25;14;9;7
24012;PMS7003;12220;50.194;18.948;2023-02-26T14:08:52;10;7;5
24012;PMS7003;12220;50.194;18.948;2023-02-26T14:11:04;10;10;7
24012;PMS7003;12220;50.194;18.948;2023-02-26T14:13:23;9;9;7
24012;PMS7003;12220;50.194;18.948;2023-02-26T14:15:39;7;7;4
24012;PMS7003;12220;50.194;18.948;2023-02-26T14:24:30;7;7;6
24012;PMS7003;12220;50.194;18.948;2023-02-26T14:26:38;9;8;6
24012;PMS7003;12220;50.194;18.948;2023-02-26T14:31:16;10;10;6
24012;PMS7003;12220;50.194;18.948;2023-02-26T14:33:26;12;11;8
24012;PMS7003;12220;50.194;18.948;2023-02-26T14:37:47;14;13;9
24012;PMS7003;12220;50.194;18.948;2023-02-26T14:39:58;13;12;9
24012;PMS7003;12220;50.194;18.948;2023-02-26T14:42:17;14;14;7
24012;PMS7003;12220;50.194;18.948;2023-02-26T14:44:27;11;9;6
24012;PMS7003;12220;50.194;18.948;2023-02-26T14:46:38;12;12;9
24012;PMS7003;12220;50.194;18.948;2023-02-26T14:48:41;11;10;8
24012;PMS7003;12220;50.194;18.948;2023-02-26T15:02:46;14;11;7
24012;PMS7003;12220;50.194;18.948;2023-02-26T15:09:32;14;10;8
24012;PMS7003;12220;50.194;18.948;2023-02-26T15:23:42;7;6;4
24012;PMS7003;12220;50.194;18.948;2023-02-26T15:25:49;6;6;5
24012;PMS7003;12220;50.194;18.948;2023-02-26T15:27:51;7;7;5
24012;PMS7003;12220;50.194;18.948;2023-02-26T15:29:56;5;5;3
24012;PMS7003;12220;50.194;18.948;2023-02-26T15:32:00;9;9;6
24012;PMS7003;12220;50.194;18.948;2023-02-26T15:34:11;7;7;5
24012;PMS7003;12220;50.194;18.948;2023-02-26T15:36:27;9;9;5
24012;PMS7003;12220;50.194;18.948;2023-02-26T15:38:38;15;8;7
24012;PMS7003;12220;50.194;18.948;2023-02-26T15:40:40;15;12;7
24012;PMS7003;12220;50.194;18.948;2023-02-26T15:42:43;14;11;7
24012;PMS7003;12220;50.194;18.948;2023-02-26T15:44:50;8;7;5
24012;PMS7003;12220;50.194;18.948;2023-02-26T15:46:55;8;7;6
24012;PMS7003;12220;50.194;18.948;2023-02-26T15:51:11;7;7;6
24012;PMS7003;12220;50.194;18.948;2023-02-26T15:53:41;6;5;4
24012;PMS7003;12220;50.194;18.948;2023-02-26T15:55:33;6;6;4
24012;PMS7003;12220;50.194;18.948;2023-02-26T15:57:48;6;4;4
24012;PMS7003;12220;50.194;18.948;2023-02-26T15:59:52;7;5;3
24012;PMS7003;12220;50.194;18.948;2023-02-26T16:04:20;8;6;5
24012;PMS7003;12220;50.194;18.948;2023-02-26T16:06:28;9;9;5
24012;PMS7003;12220;50.194;18.948;2023-02-26T16:08:38;13;10;6
24012;PMS7003;12220;50.194;18.948;2023-02-26T16:10:42;8;8;5
24012;PMS7003;12220;50.194;18.948;2023-02-26T16:12:44;6;5;5
24012;PMS7003;12220;50.194;18.948;2023-02-26T16:15:00;10;9;5
24012;PMS7003;12220;50.194;18.948;2023-02-26T16:17:02;11;5;3
24012;PMS7003;12220;50.194;18.948;2023-02-26T16:19:16;7;6;5
24012;PMS7003;12220;50.194;18.948;2023-02-26T16:21:32;6;5;3
24012;PMS7003;12220;50.194;18.948;2023-02-26T16:28:00;9;8;4
24012;PMS7003;12220;50.194;18.948;2023-02-26T16:30:12;7;6;5
24012;PMS7003;12220;50.194;18.948;2023-02-26T16:32:23;10;8;6
24012;PMS7003;12220;50.194;18.948;2023-02-26T16:36:41;10;7;5
24012;PMS7003;12220;50.194;18.948;2023-02-26T16:38:48;9;8;7
24012;PMS7003;12220;50.194;18.948;2023-02-26T16:40:58;8;8;6
24012;PMS7003;12220;50.194;18.948;2023-02-26T16:43:51;8;7;4
24012;PMS7003;12220;50.194;18.948;2023-02-26T16:47:51;11;8;6
24012;PMS7003;12220;50.194;18.948;2023-02-26T16:49:56;5;5;4
24012;PMS7003;12220;50.194;18.948;2023-02-26T16:54:53;10;7;5
24012;PMS7003;12220;50.194;18.948;2023-02-26T16:56:23;4;4;3
24012;PMS7003;12220;50.194;18.948;2023-02-26T16:58:29;6;4;4
24012;PMS7003;12220;50.194;18.948;2023-02-26T17:00:35;13;11;7
24012;PMS7003;12220;50.194;18.948;2023-02-26T17:02:38;8;8;6
24012;PMS7003;12220;50.194;18.948;2023-02-26T17:04:44;9;7;6
24012;PMS7003;12220;50.194;18.948;2023-02-26T17:06:50;12;11;7
24012;PMS7003;12220;50.194;18.948;2023-02-26T17:08:53;15;9;6
24012;PMS7003;12220;50.194;18.948;2023-02-26T17:11:17;12;10;7
24012;PMS7003;12220;50.194;18.948;2023-02-26T17:13:12;10;8;7
24012;PMS7003;12220;50.194;18.948;2023-02-26T17:19:56;10;8;6
24012;PMS7003;12220;50.194;18.948;2023-02-26T17:22:10;13;11;8
24012;PMS7003;12220;50.194;18.948;2023-02-26T17:24:19;9;8;6
24012;PMS7003;12220;50.194;18.948;2023-02-26T17:26:28;9;7;6
24012;PMS7003;12220;50.194;18.948;2023-02-26T17:28:31;8;8;7
24012;PMS7003;12220;50.194;18.948;2023-02-26T17:30:36;9;9;5
24012;PMS7003;12220;50.194;18.948;2023-02-26T17:32:38;10;10;8
24012;PMS7003;12220;50.194;18.948;2023-02-26T17:34:40;11;9;6
24012;PMS7003;12220;50.194;18.948;2023-02-26T17:36:42;17;11;7
24012;PMS7003;12220;50.194;18.948;2023-02-26T17:38:48;9;8;7
24012;PMS7003;12220;50.194;18.948;2023-02-26T17:40:50;8;8;5
24012;PMS7003;12220;50.194;18.948;2023-02-26T17:42:55;7;7;6
24012;PMS7003;12220;50.194;18.948;2023-02-26T17:44:59;16;10;7
24012;PMS7003;12220;50.194;18.948;2023-02-26T17:47:04;10;8;5
24012;PMS7003;12220;50.194;18.948;2023-02-26T17:49:06;6;6;5
24012;PMS7003;12220;50.194;18.948;2023-02-26T17:51:10;13;12;9
24012;PMS7003;12220;50.194;18.948;2023-02-26T17:53:16;6;6;5
24012;PMS7003;12220;50.194;18.948;2023-02-26T17:55:19;10;5;5
24012;PMS7003;12220;50.194;18.948;2023-02-26T17:57:22;7;7;7
24012;PMS7003;12220;50.194;18.948;2023-02-26T17:59:27;10;10;7